LATI Airport Information

Runway Information
Runway 17 Length 9022 ft width 148 ft
Elevation 109 ft Threshold ft Heading 174
Runway 35 Length 9022 ft Width 148 ft
Elevation 126 ft Threshold ft Heading 354
Airport Frequencies
Type ACC Name ACC Frequency 127.5 MHZ
Type APP Name APP Frequency 133.15 MHZ
Type TWR Name TWR Frequency 122.5 MHZ
Airport Navaids
Type NDB Name Tirana Frequency 290 KHZ
Type VOR-DME Name Tirana Frequency 117700 KHZ
Airport Weather Information & NOTAM
ADDS - METARS form results

(2001 UTC 02 July 2022)
Data provider http://aviationweather.gov/metar/data/
 
METAR text: LATI 021950Z VRB01KT CAVOK 25/18 Q1014 NOSIG
Conditions at: LATI (TIRANA , AL) observed 1950 UTC 02 July 2022
Temperature: 25.0°C (77°F)
Dewpoint: 18.0°C (64°F) [RH = 65%]
Pressure (altimeter): 29.94 inches Hg (1014.0 mb)
Winds: variable direction winds at 1 MPH (1 knots; 0.5 m/s)
Visibility: 6 or more miles (10+ km)
Ceiling: ceiling and visibility are OK
Clouds: unknown
Weather: no significant weather observed at this time

METAR text: LATI 021920Z VRB03KT CAVOK 26/18 Q1014 NOSIG
Conditions at: LATI (TIRANA , AL) observed 1920 UTC 02 July 2022
Temperature: 26.0°C (79°F)
Dewpoint: 18.0°C (64°F) [RH = 61%]
Pressure (altimeter): 29.94 inches Hg (1014.0 mb)
Winds: variable direction winds at 3 MPH (3 knots; 1.5 m/s)
Visibility: 6 or more miles (10+ km)
Ceiling: ceiling and visibility are OK
Clouds: unknown
Weather: no significant weather observed at this time

Forecast for: LATI (TIRANA , AL)
Text: TAF LATI 021700Z 0218/0318 VRB03KT CAVOK TX37/0312Z TN21/0303Z
Forecast period: 1800 UTC 02 July 2022 to 1800 UTC 03 July 2022
Forecast type: FROM: standard forecast or significant change
Winds: variable direction winds at 3 MPH (3 knots; 1.5 m/s)
Visibility: 6 or more miles (10+ km)
Ceiling: unknown
Clouds: missing
Weather: no significant weather forecast for this period
Text: TEMPO 0311/0316 32012KT FEW040TCU
Forecast period: 1100 to 1600 UTC 03 July 2022
Forecast type: TEMPORARY: The following changes expected for less than half the time period
Winds: from the NW (320 degrees) at 14 MPH (12 knots; 6.2 m/s)
Visibility: missing
Ceiling: at least 12,000 feet AGL
Clouds: few clouds at 4000 feet AGL
Weather: no significant weather forecast for this period